sensor_id;sensor_type;location;lat;lon;timestamp;P1;durP1;ratioP1;P2;durP2;ratioP2
21624;SDS011;10974;51.034;3.744;2023-02-03T04:16:32;5.27;;;1.60;;
21624;SDS011;10974;51.034;3.744;2023-02-03T04:18:58;5.27;;;1.30;;
21624;SDS011;10974;51.034;3.744;2023-02-03T04:21:24;2.40;;;1.33;;
21624;SDS011;10974;51.034;3.744;2023-02-03T04:23:50;4.20;;;1.67;;
21624;SDS011;10974;51.034;3.744;2023-02-03T04:26:16;8.00;;;1.80;;
21624;SDS011;10974;51.034;3.744;2023-02-03T04:28:43;3.73;;;1.40;;
21624;SDS011;10974;51.034;3.744;2023-02-03T04:31:09;6.93;;;1.77;;
21624;SDS011;10974;51.034;3.744;2023-02-03T04:33:35;5.00;;;1.73;;
21624;SDS011;10974;51.034;3.744;2023-02-03T04:36:01;5.63;;;1.60;;
21624;SDS011;10974;51.034;3.744;2023-02-03T04:38:27;6.50;;;1.80;;
21624;SDS011;10974;51.034;3.744;2023-02-03T04:40:53;4.67;;;1.40;;
21624;SDS011;10974;51.034;3.744;2023-02-03T04:43:19;5.27;;;1.80;;
21624;SDS011;10974;51.034;3.744;2023-02-03T04:45:45;3.40;;;1.83;;
21624;SDS011;10974;51.034;3.744;2023-02-03T04:48:11;4.77;;;1.30;;
21624;SDS011;10974;51.034;3.744;2023-02-03T04:50:37;6.00;;;1.90;;
21624;SDS011;10974;51.034;3.744;2023-02-03T04:53:03;4.63;;;1.53;;
21624;SDS011;10974;51.034;3.744;2023-02-03T04:55:29;3.40;;;1.50;;
21624;SDS011;10974;51.034;3.744;2023-02-03T04:57:56;6.47;;;1.93;;
21624;SDS011;10974;51.034;3.744;2023-02-03T05:00:22;6.47;;;1.70;;
21624;SDS011;10974;51.034;3.744;2023-02-03T05:02:48;5.03;;;2.07;;
21624;SDS011;10974;51.034;3.744;2023-02-03T05:05:14;3.43;;;1.47;;
21624;SDS011;10974;51.034;3.744;2023-02-03T05:07:40;6.47;;;1.80;;
21624;SDS011;10974;51.034;3.744;2023-02-03T05:10:07;2.93;;;1.40;;
21624;SDS011;10974;51.034;3.744;2023-02-03T05:12:33;4.20;;;1.60;;
21624;SDS011;10974;51.034;3.744;2023-02-03T05:14:59;4.33;;;1.80;;
21624;SDS011;10974;51.034;3.744;2023-02-03T05:17:25;3.43;;;1.17;;
21624;SDS011;10974;51.034;3.744;2023-02-03T05:19:51;4.10;;;1.60;;
21624;SDS011;10974;51.034;3.744;2023-02-03T05:22:17;5.00;;;1.90;;
21624;SDS011;10974;51.034;3.744;2023-02-03T05:24:43;6.17;;;1.40;;
21624;SDS011;10974;51.034;3.744;2023-02-03T05:27:09;7.00;;;1.80;;
21624;SDS011;10974;51.034;3.744;2023-02-03T05:29:35;5.17;;;1.60;;
21624;SDS011;10974;51.034;3.744;2023-02-03T05:32:01;3.97;;;1.20;;
21624;SDS011;10974;51.034;3.744;2023-02-03T05:34:27;8.43;;;1.87;;
21624;SDS011;10974;51.034;3.744;2023-02-03T05:36:53;3.87;;;1.17;;
21624;SDS011;10974;51.034;3.744;2023-02-03T05:39:19;5.50;;;1.90;;
21624;SDS011;10974;51.034;3.744;2023-02-03T05:41:45;6.90;;;1.53;;
21624;SDS011;10974;51.034;3.744;2023-02-03T05:44:18;6.77;;;2.00;;
21624;SDS011;10974;51.034;3.744;2023-02-03T05:46:44;4.37;;;1.50;;
21624;SDS011;10974;51.034;3.744;2023-02-03T05:49:10;4.57;;;1.53;;
21624;SDS011;10974;51.034;3.744;2023-02-03T05:51:36;2.50;;;1.27;;
21624;SDS011;10974;51.034;3.744;2023-02-03T05:54:03;6.63;;;1.90;;
21624;SDS011;10974;51.034;3.744;2023-02-03T05:56:29;3.70;;;1.40;;
21624;SDS011;10974;51.034;3.744;2023-02-03T05:58:55;3.50;;;1.63;;
21624;SDS011;10974;51.034;3.744;2023-02-03T06:01:22;5.10;;;1.67;;
21624;SDS011;10974;51.034;3.744;2023-02-03T06:03:48;3.63;;;1.37;;
21624;SDS011;10974;51.034;3.744;2023-02-03T06:06:14;4.40;;;1.63;;
21624;SDS011;10974;51.034;3.744;2023-02-03T06:08:41;5.27;;;1.80;;
21624;SDS011;10974;51.034;3.744;2023-02-03T06:11:07;5.43;;;1.70;;
21624;SDS011;10974;51.034;3.744;2023-02-03T06:13:33;4.00;;;1.50;;
21624;SDS011;10974;51.034;3.744;2023-02-03T06:15:59;3.03;;;1.50;;
21624;SDS011;10974;51.034;3.744;2023-02-03T06:18:25;2.70;;;1.37;;
21624;SDS011;10974;51.034;3.744;2023-02-03T06:20:51;3.13;;;1.60;;
21624;SDS011;10974;51.034;3.744;2023-02-03T06:23:17;10.13;;;1.70;;
21624;SDS011;10974;51.034;3.744;2023-02-03T06:25:44;6.23;;;1.80;;
21624;SDS011;10974;51.034;3.744;2023-02-03T06:28:10;4.87;;;1.70;;
21624;SDS011;10974;51.034;3.744;2023-02-03T06:30:36;6.57;;;1.40;;
21624;SDS011;10974;51.034;3.744;2023-02-03T06:33:02;4.27;;;1.70;;
21624;SDS011;10974;51.034;3.744;2023-02-03T06:35:28;89.20;;;4.20;;
21624;SDS011;10974;51.034;3.744;2023-02-03T06:37:54;11.27;;;2.07;;
21624;SDS011;10974;51.034;3.744;2023-02-03T06:40:20;4.83;;;1.40;;
21624;SDS011;10974;51.034;3.744;2023-02-03T06:42:46;8.50;;;1.50;;
21624;SDS011;10974;51.034;3.744;2023-02-03T06:45:13;4.23;;;1.70;;
21624;SDS011;10974;51.034;3.744;2023-02-03T06:47:43;265.60;;;17.30;;
21624;SDS011;10974;51.034;3.744;2023-02-03T06:50:11;9.80;;;2.10;;
21624;SDS011;10974;51.034;3.744;2023-02-03T06:52:37;6.93;;;2.47;;
21624;SDS011;10974;51.034;3.744;2023-02-03T06:55:03;11.20;;;2.90;;
21624;SDS011;10974;51.034;3.744;2023-02-03T06:57:30;5.77;;;2.43;;
21624;SDS011;10974;51.034;3.744;2023-02-03T06:59:56;7.80;;;2.97;;
21624;SDS011;10974;51.034;3.744;2023-02-03T07:02:22;8.33;;;2.70;;
21624;SDS011;10974;51.034;3.744;2023-02-03T07:04:48;7.93;;;2.57;;
21624;SDS011;10974;51.034;3.744;2023-02-03T07:07:14;15.13;;;3.00;;
21624;SDS011;10974;51.034;3.744;2023-02-03T07:09:40;7.63;;;2.10;;
21624;SDS011;10974;51.034;3.744;2023-02-03T07:12:06;7.90;;;2.50;;
21624;SDS011;10974;51.034;3.744;2023-02-03T07:14:33;8.23;;;2.07;;
21624;SDS011;10974;51.034;3.744;2023-02-03T07:17:03;7.67;;;2.10;;
21624;SDS011;10974;51.034;3.744;2023-02-03T07:19:30;8.60;;;1.93;;
21624;SDS011;10974;51.034;3.744;2023-02-03T07:21:56;7.77;;;2.03;;
21624;SDS011;10974;51.034;3.744;2023-02-03T07:24:22;4.83;;;1.63;;
21624;SDS011;10974;51.034;3.744;2023-02-03T07:26:49;2.13;;;1.40;;
21624;SDS011;10974;51.034;3.744;2023-02-03T07:29:15;10.77;;;2.50;;
21624;SDS011;10974;51.034;3.744;2023-02-03T07:31:41;4.40;;;2.10;;
21624;SDS011;10974;51.034;3.744;2023-02-03T07:34:07;7.63;;;2.20;;
21624;SDS011;10974;51.034;3.744;2023-02-03T07:36:33;6.97;;;2.10;;
21624;SDS011;10974;51.034;3.744;2023-02-03T07:38:59;11.97;;;2.50;;
21624;SDS011;10974;51.034;3.744;2023-02-03T07:41:25;5.13;;;2.00;;
21624;SDS011;10974;51.034;3.744;2023-02-03T07:43:51;10.33;;;2.10;;
21624;SDS011;10974;51.034;3.744;2023-02-03T07:46:17;6.80;;;2.30;;
21624;SDS011;10974;51.034;3.744;2023-02-03T07:48:43;6.00;;;1.93;;
21624;SDS011;10974;51.034;3.744;2023-02-03T07:51:09;8.67;;;2.13;;
21624;SDS011;10974;51.034;3.744;2023-02-03T07:53:35;3.13;;;2.20;;
21624;SDS011;10974;51.034;3.744;2023-02-03T07:56:02;8.13;;;2.50;;
21624;SDS011;10974;51.034;3.744;2023-02-03T07:58:29;8.50;;;1.90;;
21624;SDS011;10974;51.034;3.744;2023-02-03T08:00:55;4.90;;;2.20;;
21624;SDS011;10974;51.034;3.744;2023-02-03T08:03:21;3.73;;;1.67;;
21624;SDS011;10974;51.034;3.744;2023-02-03T08:05:47;6.60;;;1.70;;
21624;SDS011;10974;51.034;3.744;2023-02-03T08:08:14;4.00;;;1.57;;
21624;SDS011;10974;51.034;3.744;2023-02-03T08:10:40;8.07;;;1.80;;
21624;SDS011;10974;51.034;3.744;2023-02-03T08:13:06;4.50;;;1.37;;
21624;SDS011;10974;51.034;3.744;2023-02-03T08:15:32;7.97;;;2.70;;
21624;SDS011;10974;51.034;3.744;2023-02-03T08:17:58;3.60;;;1.60;;
21624;SDS011;10974;51.034;3.744;2023-02-03T08:20:24;3.57;;;1.63;;
21624;SDS011;10974;51.034;3.744;2023-02-03T08:22:51;3.70;;;2.00;;
21624;SDS011;10974;51.034;3.744;2023-02-03T08:25:17;5.23;;;1.60;;
21624;SDS011;10974;51.034;3.744;2023-02-03T08:27:43;10.10;;;2.13;;
21624;SDS011;10974;51.034;3.744;2023-02-03T08:30:10;9.50;;;2.07;;
21624;SDS011;10974;51.034;3.744;2023-02-03T08:32:37;5.70;;;3.77;;
21624;SDS011;10974;51.034;3.744;2023-02-03T08:35:03;6.90;;;2.07;;
21624;SDS011;10974;51.034;3.744;2023-02-03T08:37:30;3.13;;;1.30;;
21624;SDS011;10974;51.034;3.744;2023-02-03T08:39:56;4.60;;;1.70;;
21624;SDS011;10974;51.034;3.744;2023-02-03T08:42:23;5.17;;;1.60;;
21624;SDS011;10974;51.034;3.744;2023-02-03T08:44:49;6.97;;;1.97;;
21624;SDS011;10974;51.034;3.744;2023-02-03T08:47:15;5.40;;;1.90;;
21624;SDS011;10974;51.034;3.744;2023-02-03T08:49:41;4.27;;;1.43;;
21624;SDS011;10974;51.034;3.744;2023-02-03T08:52:09;5.73;;;1.80;;
21624;SDS011;10974;51.034;3.744;2023-02-03T08:54:35;4.83;;;1.57;;
21624;SDS011;10974;51.034;3.744;2023-02-03T08:57:01;5.20;;;2.17;;
21624;SDS011;10974;51.034;3.744;2023-02-03T08:59:27;6.40;;;2.10;;
21624;SDS011;10974;51.034;3.744;2023-02-03T09:01:54;8.67;;;1.90;;
21624;SDS011;10974;51.034;3.744;2023-02-03T09:04:20;9.83;;;2.10;;
21624;SDS011;10974;51.034;3.744;2023-02-03T09:06:50;4.00;;;1.33;;
21624;SDS011;10974;51.034;3.744;2023-02-03T09:09:18;12.80;;;2.13;;
21624;SDS011;10974;51.034;3.744;2023-02-03T09:11:44;3.93;;;1.60;;
21624;SDS011;10974;51.034;3.744;2023-02-03T09:14:10;5.53;;;2.17;;
21624;SDS011;10974;51.034;3.744;2023-02-03T09:16:36;8.67;;;2.27;;
21624;SDS011;10974;51.034;3.744;2023-02-03T09:19:03;6.17;;;1.90;;
21624;SDS011;10974;51.034;3.744;2023-02-03T09:21:29;4.67;;;1.87;;
21624;SDS011;10974;51.034;3.744;2023-02-03T09:23:55;7.50;;;2.30;;
21624;SDS011;10974;51.034;3.744;2023-02-03T09:26:21;5.03;;;1.90;;
21624;SDS011;10974;51.034;3.744;2023-02-03T09:28:47;5.60;;;2.03;;
21624;SDS011;10974;51.034;3.744;2023-02-03T09:31:14;8.40;;;2.30;;
21624;SDS011;10974;51.034;3.744;2023-02-03T09:33:44;5.53;;;2.00;;
21624;SDS011;10974;51.034;3.744;2023-02-03T09:36:10;8.73;;;2.17;;
21624;SDS011;10974;51.034;3.744;2023-02-03T09:38:36;3.13;;;1.60;;
21624;SDS011;10974;51.034;3.744;2023-02-03T09:41:11;9.07;;;1.93;;
21624;SDS011;10974;51.034;3.744;2023-02-03T09:46:15;4.93;;;1.73;;
21624;SDS011;10974;51.034;3.744;2023-02-03T09:48:42;9.90;;;2.07;;
21624;SDS011;10974;51.034;3.744;2023-02-03T09:51:18;4.70;;;1.53;;
21624;SDS011;10974;51.034;3.744;2023-02-03T09:53:47;4.83;;;1.93;;
21624;SDS011;10974;51.034;3.744;2023-02-03T09:56:28;5.33;;;2.20;;
21624;SDS011;10974;51.034;3.744;2023-02-03T09:58:54;6.63;;;1.83;;
21624;SDS011;10974;51.034;3.744;2023-02-03T10:01:20;5.33;;;1.80;;
21624;SDS011;10974;51.034;3.744;2023-02-03T10:03:50;5.60;;;1.77;;
21624;SDS011;10974;51.034;3.744;2023-02-03T10:06:30;6.43;;;2.10;;
21624;SDS011;10974;51.034;3.744;2023-02-03T10:22:03;3.63;;;1.60;;
21624;SDS011;10974;51.034;3.744;2023-02-03T10:24:44;5.13;;;1.90;;
21624;SDS011;10974;51.034;3.744;2023-02-03T10:27:15;10.30;;;2.07;;
21624;SDS011;10974;51.034;3.744;2023-02-03T10:29:42;11.80;;;2.03;;
21624;SDS011;10974;51.034;3.744;2023-02-03T10:32:09;3.23;;;2.00;;
21624;SDS011;10974;51.034;3.744;2023-02-03T10:34:35;6.73;;;1.70;;
21624;SDS011;10974;51.034;3.744;2023-02-03T10:39:31;5.27;;;1.70;;
21624;SDS011;10974;51.034;3.744;2023-02-03T10:42:00;10.37;;;2.20;;
21624;SDS011;10974;51.034;3.744;2023-02-03T10:44:34;5.47;;;1.90;;
21624;SDS011;10974;51.034;3.744;2023-02-03T10:47:01;3.90;;;1.80;;
21624;SDS011;10974;51.034;3.744;2023-02-03T10:49:27;4.50;;;1.70;;
21624;SDS011;10974;51.034;3.744;2023-02-03T10:51:54;8.27;;;1.93;;
21624;SDS011;10974;51.034;3.744;2023-02-03T10:54:29;3.93;;;1.73;;
21624;SDS011;10974;51.034;3.744;2023-02-03T10:57:00;9.17;;;2.00;;
21624;SDS011;10974;51.034;3.744;2023-02-03T10:59:28;4.07;;;1.70;;
21624;SDS011;10974;51.034;3.744;2023-02-03T11:01:54;7.33;;;1.97;;
21624;SDS011;10974;51.034;3.744;2023-02-03T11:06:55;5.23;;;1.80;;
21624;SDS011;10974;51.034;3.744;2023-02-03T11:09:31;5.87;;;2.53;;
21624;SDS011;10974;51.034;3.744;2023-02-03T11:12:04;2.90;;;1.80;;
21624;SDS011;10974;51.034;3.744;2023-02-03T11:14:38;3.47;;;2.03;;
21624;SDS011;10974;51.034;3.744;2023-02-03T11:17:05;4.70;;;2.30;;
21624;SDS011;10974;51.034;3.744;2023-02-03T11:19:32;8.40;;;1.90;;
21624;SDS011;10974;51.034;3.744;2023-02-03T11:21:58;9.60;;;2.00;;
21624;SDS011;10974;51.034;3.744;2023-02-03T11:24:37;5.63;;;1.80;;
21624;SDS011;10974;51.034;3.744;2023-02-03T11:27:14;3.23;;;1.93;;
21624;SDS011;10974;51.034;3.744;2023-02-03T11:29:45;4.40;;;2.10;;
21624;SDS011;10974;51.034;3.744;2023-02-03T11:32:19;6.93;;;2.17;;
21624;SDS011;10974;51.034;3.744;2023-02-03T11:37:45;2.70;;;1.80;;
21624;SDS011;10974;51.034;3.744;2023-02-03T11:40:22;4.90;;;2.20;;
21624;SDS011;10974;51.034;3.744;2023-02-03T11:47:48;6.00;;;2.00;;
21624;SDS011;10974;51.034;3.744;2023-02-03T11:58:06;2.87;;;1.63;;
21624;SDS011;10974;51.034;3.744;2023-02-03T12:23:22;4.97;;;1.60;;
21624;SDS011;10974;51.034;3.744;2023-02-03T12:33:45;4.10;;;1.90;;
21624;SDS011;10974;51.034;3.744;2023-02-03T12:38:42;4.40;;;1.50;;
21624;SDS011;10974;51.034;3.744;2023-02-03T12:41:11;2.37;;;1.23;;
21624;SDS011;10974;51.034;3.744;2023-02-03T12:43:41;4.50;;;1.77;;
21624;SDS011;10974;51.034;3.744;2023-02-03T12:46:27;6.77;;;1.20;;
21624;SDS011;10974;51.034;3.744;2023-02-03T12:48:56;4.23;;;1.33;;
21624;SDS011;10974;51.034;3.744;2023-02-03T12:51:27;4.30;;;1.53;;
21624;SDS011;10974;51.034;3.744;2023-02-03T12:53:57;3.90;;;1.67;;
21624;SDS011;10974;51.034;3.744;2023-02-03T12:56:34;9.97;;;2.23;;
21624;SDS011;10974;51.034;3.744;2023-02-03T12:59:05;3.13;;;1.33;;
21624;SDS011;10974;51.034;3.744;2023-02-03T13:01:37;2.20;;;1.40;;
21624;SDS011;10974;51.034;3.744;2023-02-03T13:12:00;2.77;;;1.53;;
21624;SDS011;10974;51.034;3.744;2023-02-03T13:14:33;2.57;;;1.50;;
21624;SDS011;10974;51.034;3.744;2023-02-03T13:17:04;3.87;;;1.43;;
21624;SDS011;10974;51.034;3.744;2023-02-03T13:19:36;4.20;;;1.63;;
21624;SDS011;10974;51.034;3.744;2023-02-03T13:22:08;4.00;;;1.57;;
21624;SDS011;10974;51.034;3.744;2023-02-03T13:24:35;8.17;;;1.50;;
21624;SDS011;10974;51.034;3.744;2023-02-03T13:28:05;3.00;;;1.70;;
21624;SDS011;10974;51.034;3.744;2023-02-03T13:32:30;1.90;;;1.10;;
21624;SDS011;10974;51.034;3.744;2023-02-03T13:40:14;5.23;;;1.80;;
21624;SDS011;10974;51.034;3.744;2023-02-03T13:42:46;3.30;;;1.37;;
21624;SDS011;10974;51.034;3.744;2023-02-03T13:47:50;5.77;;;1.70;;
21624;SDS011;10974;51.034;3.744;2023-02-03T13:50:24;3.70;;;1.50;;
21624;SDS011;10974;51.034;3.744;2023-02-03T13:55:41;1.90;;;1.33;;
21624;SDS011;10974;51.034;3.744;2023-02-03T13:58:06;3.37;;;1.47;;
21624;SDS011;10974;51.034;3.744;2023-02-03T14:03:18;4.10;;;2.07;;
21624;SDS011;10974;51.034;3.744;2023-02-03T14:05:45;4.33;;;1.97;;
21624;SDS011;10974;51.034;3.744;2023-02-03T14:13:35;4.60;;;1.43;;
21624;SDS011;10974;51.034;3.744;2023-02-03T14:16:34;4.83;;;1.53;;
21624;SDS011;10974;51.034;3.744;2023-02-03T14:18:53;2.63;;;1.67;;
21624;SDS011;10974;51.034;3.744;2023-02-03T14:21:21;2.97;;;1.53;;
21624;SDS011;10974;51.034;3.744;2023-02-03T14:23:50;2.40;;;1.50;;
21624;SDS011;10974;51.034;3.744;2023-02-03T14:26:19;5.17;;;1.50;;
21624;SDS011;10974;51.034;3.744;2023-02-03T14:28:46;2.27;;;1.33;;
21624;SDS011;10974;51.034;3.744;2023-02-03T14:31:19;4.27;;;1.90;;
21624;SDS011;10974;51.034;3.744;2023-02-03T14:47:28;3.80;;;1.90;;
21624;SDS011;10974;51.034;3.744;2023-02-03T14:52:33;2.70;;;1.77;;
21624;SDS011;10974;51.034;3.744;2023-02-03T14:57:38;3.10;;;1.60;;
21624;SDS011;10974;51.034;3.744;2023-02-03T15:07:54;4.50;;;1.53;;
21624;SDS011;10974;51.034;3.744;2023-02-03T15:10:21;3.47;;;1.67;;
21624;SDS011;10974;51.034;3.744;2023-02-03T15:12:51;7.97;;;2.00;;
21624;SDS011;10974;51.034;3.744;2023-02-03T15:18:33;9.03;;;2.47;;
21624;SDS011;10974;51.034;3.744;2023-02-03T15:21:00;4.00;;;1.80;;
21624;SDS011;10974;51.034;3.744;2023-02-03T15:23:35;3.80;;;2.03;;
21624;SDS011;10974;51.034;3.744;2023-02-03T15:26:02;3.70;;;1.40;;
21624;SDS011;10974;51.034;3.744;2023-02-03T15:28:29;3.63;;;1.50;;
21624;SDS011;10974;51.034;3.744;2023-02-03T15:31:05;2.00;;;1.40;;
21624;SDS011;10974;51.034;3.744;2023-02-03T15:33:34;3.37;;;1.73;;
21624;SDS011;10974;51.034;3.744;2023-02-03T15:36:05;4.70;;;2.03;;
21624;SDS011;10974;51.034;3.744;2023-02-03T15:38:37;5.10;;;1.63;;
21624;SDS011;10974;51.034;3.744;2023-02-03T15:41:05;3.43;;;1.90;;
21624;SDS011;10974;51.034;3.744;2023-02-03T15:43:36;4.87;;;2.10;;
21624;SDS011;10974;51.034;3.744;2023-02-03T15:53:47;2.97;;;1.80;;
21624;SDS011;10974;51.034;3.744;2023-02-03T15:56:19;5.70;;;1.80;;
21624;SDS011;10974;51.034;3.744;2023-02-03T15:58:46;4.50;;;2.23;;
21624;SDS011;10974;51.034;3.744;2023-02-03T16:01:13;5.40;;;2.40;;
21624;SDS011;10974;51.034;3.744;2023-02-03T16:03:46;3.73;;;2.13;;
21624;SDS011;10974;51.034;3.744;2023-02-03T16:08:45;3.57;;;2.20;;
21624;SDS011;10974;51.034;3.744;2023-02-03T16:11:22;4.57;;;2.13;;
21624;SDS011;10974;51.034;3.744;2023-02-03T16:13:49;4.73;;;2.20;;
21624;SDS011;10974;51.034;3.744;2023-02-03T16:16:17;6.33;;;2.47;;
21624;SDS011;10974;51.034;3.744;2023-02-03T16:18:55;4.30;;;2.33;;
21624;SDS011;10974;51.034;3.744;2023-02-03T16:24:26;3.80;;;2.10;;
21624;SDS011;10974;51.034;3.744;2023-02-03T16:26:53;5.13;;;2.60;;
21624;SDS011;10974;51.034;3.744;2023-02-03T16:29:19;10.53;;;2.83;;
21624;SDS011;10974;51.034;3.744;2023-02-03T16:32:13;8.20;;;2.70;;
21624;SDS011;10974;51.034;3.744;2023-02-03T16:35:00;3.47;;;1.87;;
21624;SDS011;10974;51.034;3.744;2023-02-03T16:37:44;6.97;;;2.57;;
21624;SDS011;10974;51.034;3.744;2023-02-03T16:40:29;4.00;;;2.60;;
21624;SDS011;10974;51.034;3.744;2023-02-03T16:43:14;6.20;;;2.90;;
21624;SDS011;10974;51.034;3.744;2023-02-03T16:45:59;7.33;;;2.90;;
21624;SDS011;10974;51.034;3.744;2023-02-03T16:48:44;6.50;;;2.70;;
21624;SDS011;10974;51.034;3.744;2023-02-03T16:51:39;6.43;;;2.43;;
21624;SDS011;10974;51.034;3.744;2023-02-03T16:54:08;8.33;;;2.97;;
21624;SDS011;10974;51.034;3.744;2023-02-03T16:56:35;6.30;;;2.43;;
21624;SDS011;10974;51.034;3.744;2023-02-03T16:59:01;5.40;;;2.70;;
21624;SDS011;10974;51.034;3.744;2023-02-03T17:01:27;8.03;;;2.70;;
21624;SDS011;10974;51.034;3.744;2023-02-03T17:03:53;4.73;;;2.67;;
21624;SDS011;10974;51.034;3.744;2023-02-03T17:06:19;6.23;;;2.80;;
21624;SDS011;10974;51.034;3.744;2023-02-03T17:08:45;6.40;;;3.10;;
21624;SDS011;10974;51.034;3.744;2023-02-03T17:11:15;6.17;;;2.67;;
21624;SDS011;10974;51.034;3.744;2023-02-03T17:13:42;6.27;;;3.00;;
21624;SDS011;10974;51.034;3.744;2023-02-03T17:16:09;11.27;;;2.60;;
21624;SDS011;10974;51.034;3.744;2023-02-03T17:18:36;5.80;;;2.80;;
21624;SDS011;10974;51.034;3.744;2023-02-03T17:21:06;8.40;;;2.90;;
21624;SDS011;10974;51.034;3.744;2023-02-03T17:23:33;8.03;;;3.40;;
21624;SDS011;10974;51.034;3.744;2023-02-03T17:25:59;11.60;;;3.30;;
21624;SDS011;10974;51.034;3.744;2023-02-03T17:28:25;7.70;;;3.13;;
21624;SDS011;10974;51.034;3.744;2023-02-03T17:30:57;6.03;;;2.50;;
21624;SDS011;10974;51.034;3.744;2023-02-03T17:33:24;9.93;;;3.10;;
21624;SDS011;10974;51.034;3.744;2023-02-03T17:35:58;4.90;;;2.80;;
21624;SDS011;10974;51.034;3.744;2023-02-03T17:38:24;4.60;;;2.90;;
21624;SDS011;10974;51.034;3.744;2023-02-03T17:40:50;3.83;;;2.67;;
21624;SDS011;10974;51.034;3.744;2023-02-03T17:43:16;13.13;;;4.63;;
21624;SDS011;10974;51.034;3.744;2023-02-03T17:45:43;6.20;;;3.50;;
21624;SDS011;10974;51.034;3.744;2023-02-03T17:48:09;7.40;;;3.70;;
21624;SDS011;10974;51.034;3.744;2023-02-03T17:50:36;8.70;;;4.70;;
21624;SDS011;10974;51.034;3.744;2023-02-03T17:53:02;8.47;;;4.40;;
21624;SDS011;10974;51.034;3.744;2023-02-03T17:55:28;12.33;;;4.83;;
21624;SDS011;10974;51.034;3.744;2023-02-03T17:57:54;15.60;;;7.80;;
21624;SDS011;10974;51.034;3.744;2023-02-03T18:00:21;30.50;;;11.67;;
21624;SDS011;10974;51.034;3.744;2023-02-03T18:02:48;18.50;;;8.13;;
21624;SDS011;10974;51.034;3.744;2023-02-03T18:05:14;26.53;;;10.90;;
21624;SDS011;10974;51.034;3.744;2023-02-03T18:07:40;18.50;;;8.00;;
21624;SDS011;10974;51.034;3.744;2023-02-03T18:10:07;13.50;;;5.23;;
21624;SDS011;10974;51.034;3.744;2023-02-03T18:12:33;9.77;;;4.70;;
21624;SDS011;10974;51.034;3.744;2023-02-03T18:14:59;12.30;;;5.67;;
21624;SDS011;10974;51.034;3.744;2023-02-03T18:17:25;9.63;;;4.73;;
21624;SDS011;10974;51.034;3.744;2023-02-03T18:19:51;20.10;;;8.77;;
21624;SDS011;10974;51.034;3.744;2023-02-03T18:22:19;12.90;;;7.30;;
21624;SDS011;10974;51.034;3.744;2023-02-03T18:24:45;12.27;;;5.77;;
21624;SDS011;10974;51.034;3.744;2023-02-03T18:27:15;10.73;;;5.30;;
21624;SDS011;10974;51.034;3.744;2023-02-03T18:29:45;13.10;;;5.60;;
21624;SDS011;10974;51.034;3.744;2023-02-03T18:32:14;11.60;;;6.10;;
21624;SDS011;10974;51.034;3.744;2023-02-03T18:34:40;19.83;;;9.33;;
21624;SDS011;10974;51.034;3.744;2023-02-03T18:37:07;14.77;;;7.17;;
21624;SDS011;10974;51.034;3.744;2023-02-03T18:39:33;15.27;;;7.40;;
21624;SDS011;10974;51.034;3.744;2023-02-03T18:41:59;17.03;;;7.20;;
21624;SDS011;10974;51.034;3.744;2023-02-03T18:44:25;12.60;;;6.23;;
21624;SDS011;10974;51.034;3.744;2023-02-03T18:46:52;9.03;;;5.70;;
21624;SDS011;10974;51.034;3.744;2023-02-03T18:49:18;11.33;;;6.23;;
21624;SDS011;10974;51.034;3.744;2023-02-03T18:51:45;13.03;;;5.90;;
21624;SDS011;10974;51.034;3.744;2023-02-03T18:54:11;12.40;;;6.00;;
21624;SDS011;10974;51.034;3.744;2023-02-03T18:56:37;12.70;;;6.37;;
21624;SDS011;10974;51.034;3.744;2023-02-03T18:59:09;16.20;;;6.67;;
21624;SDS011;10974;51.034;3.744;2023-02-03T19:01:35;19.67;;;7.70;;
21624;SDS011;10974;51.034;3.744;2023-02-03T19:04:03;11.37;;;6.57;;
21624;SDS011;10974;51.034;3.744;2023-02-03T19:06:29;17.00;;;7.73;;
21624;SDS011;10974;51.034;3.744;2023-02-03T19:08:56;18.83;;;7.53;;
21624;SDS011;10974;51.034;3.744;2023-02-03T19:11:22;16.37;;;8.40;;
21624;SDS011;10974;51.034;3.744;2023-02-03T19:13:49;15.03;;;7.17;;
21624;SDS011;10974;51.034;3.744;2023-02-03T19:16:15;11.40;;;5.73;;
21624;SDS011;10974;51.034;3.744;2023-02-03T19:18:42;13.03;;;5.97;;
21624;SDS011;10974;51.034;3.744;2023-02-03T19:21:08;16.43;;;7.17;;
21624;SDS011;10974;51.034;3.744;2023-02-03T19:23:36;12.10;;;5.40;;
21624;SDS011;10974;51.034;3.744;2023-02-03T19:26:02;8.63;;;4.43;;
21624;SDS011;10974;51.034;3.744;2023-02-03T19:28:28;8.87;;;4.80;;
21624;SDS011;10974;51.034;3.744;2023-02-03T19:30:54;11.80;;;5.50;;
21624;SDS011;10974;51.034;3.744;2023-02-03T19:33:26;8.03;;;4.53;;
21624;SDS011;10974;51.034;3.744;2023-02-03T19:35:52;10.17;;;4.47;;
21624;SDS011;10974;51.034;3.744;2023-02-03T19:38:18;9.87;;;4.93;;
21624;SDS011;10974;51.034;3.744;2023-02-03T19:40:44;10.40;;;4.87;;
21624;SDS011;10974;51.034;3.744;2023-02-03T19:43:11;10.67;;;4.87;;
21624;SDS011;10974;51.034;3.744;2023-02-03T19:45:37;8.83;;;4.33;;
21624;SDS011;10974;51.034;3.744;2023-02-03T19:48:03;10.93;;;4.70;;
21624;SDS011;10974;51.034;3.744;2023-02-03T19:50:29;9.07;;;4.50;;
21624;SDS011;10974;51.034;3.744;2023-02-03T19:52:55;7.97;;;4.93;;
21624;SDS011;10974;51.034;3.744;2023-02-03T19:55:21;8.63;;;4.50;;
21624;SDS011;10974;51.034;3.744;2023-02-03T19:57:48;8.43;;;5.00;;
21624;SDS011;10974;51.034;3.744;2023-02-03T20:00:14;9.00;;;5.20;;
21624;SDS011;10974;51.034;3.744;2023-02-03T20:02:40;13.03;;;4.63;;
21624;SDS011;10974;51.034;3.744;2023-02-03T20:05:06;11.27;;;5.37;;
21624;SDS011;10974;51.034;3.744;2023-02-03T20:07:32;9.20;;;5.77;;
21624;SDS011;10974;51.034;3.744;2023-02-03T20:09:59;12.97;;;5.10;;
21624;SDS011;10974;51.034;3.744;2023-02-03T20:12:25;10.83;;;5.10;;
21624;SDS011;10974;51.034;3.744;2023-02-03T20:14:51;10.30;;;5.10;;
21624;SDS011;10974;51.034;3.744;2023-02-03T20:17:17;9.70;;;4.93;;
21624;SDS011;10974;51.034;3.744;2023-02-03T20:19:43;16.53;;;6.20;;
21624;SDS011;10974;51.034;3.744;2023-02-03T20:22:09;12.57;;;4.90;;
21624;SDS011;10974;51.034;3.744;2023-02-03T20:24:35;13.33;;;6.43;;
21624;SDS011;10974;51.034;3.744;2023-02-03T20:27:01;12.73;;;5.50;;
21624;SDS011;10974;51.034;3.744;2023-02-03T20:29:27;11.23;;;5.67;;
21624;SDS011;10974;51.034;3.744;2023-02-03T20:31:54;8.10;;;5.40;;
21624;SDS011;10974;51.034;3.744;2023-02-03T20:34:21;7.33;;;5.00;;
21624;SDS011;10974;51.034;3.744;2023-02-03T20:36:47;7.83;;;5.23;;
21624;SDS011;10974;51.034;3.744;2023-02-03T20:39:17;12.87;;;5.93;;
21624;SDS011;10974;51.034;3.744;2023-02-03T20:41:44;7.40;;;4.77;;
21624;SDS011;10974;51.034;3.744;2023-02-03T20:44:11;11.53;;;5.30;;
21624;SDS011;10974;51.034;3.744;2023-02-03T20:46:38;12.57;;;5.50;;
21624;SDS011;10974;51.034;3.744;2023-02-03T20:49:05;10.53;;;5.70;;
21624;SDS011;10974;51.034;3.744;2023-02-03T20:51:33;12.50;;;5.90;;
21624;SDS011;10974;51.034;3.744;2023-02-03T20:53:59;12.57;;;5.13;;
21624;SDS011;10974;51.034;3.744;2023-02-03T20:56:25;13.90;;;5.53;;
21624;SDS011;10974;51.034;3.744;2023-02-03T20:58:51;8.93;;;5.27;;
21624;SDS011;10974;51.034;3.744;2023-02-03T21:01:18;10.30;;;5.00;;
21624;SDS011;10974;51.034;3.744;2023-02-03T21:03:44;13.10;;;5.53;;
21624;SDS011;10974;51.034;3.744;2023-02-03T21:06:30;8.33;;;5.20;;
21624;SDS011;10974;51.034;3.744;2023-02-03T21:08:56;13.00;;;6.23;;
21624;SDS011;10974;51.034;3.744;2023-02-03T21:11:26;12.13;;;5.63;;
21624;SDS011;10974;51.034;3.744;2023-02-03T21:13:54;10.87;;;5.20;;
21624;SDS011;10974;51.034;3.744;2023-02-03T21:16:24;13.43;;;5.80;;
21624;SDS011;10974;51.034;3.744;2023-02-03T21:18:55;8.77;;;5.43;;
21624;SDS011;10974;51.034;3.744;2023-02-03T21:21:39;9.83;;;5.70;;
21624;SDS011;10974;51.034;3.744;2023-02-03T21:24:18;10.43;;;5.30;;
21624;SDS011;10974;51.034;3.744;2023-02-03T21:26:47;10.83;;;5.50;;
21624;SDS011;10974;51.034;3.744;2023-02-03T21:29:34;8.33;;;4.57;;